createdAt,value
2023-04-23T00:02:17.283Z,9.55
2023-04-23T00:04:52.942Z,9.98
2023-04-23T00:07:23.930Z,10.38
2023-04-23T00:09:56.458Z,9.98
2023-04-23T00:12:24.269Z,6.60
2023-04-23T00:14:52.238Z,11.15
2023-04-23T00:17:20.134Z,5.88
2023-04-23T00:19:47.812Z,10.40
2023-04-23T00:22:17.312Z,10.30
2023-04-23T00:24:44.564Z,9.88
2023-04-23T00:27:11.924Z,9.20
2023-04-23T00:29:39.410Z,7.68
2023-04-23T00:32:08.388Z,9.30
2023-04-23T00:34:35.868Z,8.00
2023-04-23T00:37:06.834Z,6.70
2023-04-23T00:39:34.252Z,7.97
2023-04-23T00:42:07.254Z,7.82
2023-04-23T00:44:34.672Z,6.57
2023-04-23T00:47:02.677Z,8.35
2023-04-23T00:49:30.933Z,9.63
2023-04-23T00:51:58.106Z,7.82
2023-04-23T00:54:25.370Z,8.68
2023-04-23T00:56:53.759Z,9.20
2023-04-23T00:59:21.559Z,9.13
2023-04-23T01:01:48.884Z,8.75
2023-04-23T01:04:18.055Z,10.55
2023-04-23T01:06:47.469Z,8.05
2023-04-23T01:09:15.848Z,9.15
2023-04-23T01:11:44.204Z,6.60
2023-04-23T01:14:11.771Z,6.68
2023-04-23T01:16:39.279Z,10.18
2023-04-23T01:19:08.281Z,9.38
2023-04-23T01:21:37.090Z,10.02
2023-04-23T01:24:05.730Z,8.68
2023-04-23T01:26:34.001Z,8.43
2023-04-23T01:29:01.956Z,9.77
2023-04-23T01:31:30.945Z,9.77
2023-04-23T01:34:00.526Z,9.73
2023-04-23T01:36:28.280Z,10.13
2023-04-23T01:38:55.749Z,8.20
2023-04-23T01:41:23.019Z,6.95
2023-04-23T01:43:50.773Z,8.40
2023-04-23T01:46:18.405Z,7.43
2023-04-23T01:48:45.629Z,8.05
2023-04-23T01:51:12.901Z,8.18
2023-04-23T01:53:40.020Z,8.57
2023-04-23T01:56:10.081Z,6.97
2023-04-23T01:58:37.501Z,7.15
2023-04-23T02:01:04.793Z,8.23
2023-04-23T02:03:34.188Z,6.63
2023-04-23T02:06:01.820Z,9.05
2023-04-23T02:08:29.207Z,6.88
2023-04-23T02:10:58.052Z,8.45
2023-04-23T02:13:25.345Z,8.73
2023-04-23T02:15:52.629Z,5.97
2023-04-23T02:18:19.956Z,8.05
2023-04-23T02:20:47.449Z,9.35
2023-04-23T02:23:14.658Z,8.93
2023-04-23T02:25:43.523Z,6.80
2023-04-23T02:28:13.561Z,6.38
2023-04-23T02:30:46.834Z,5.82
2023-04-23T02:33:14.501Z,7.15
2023-04-23T02:35:41.940Z,7.30
2023-04-23T02:38:09.313Z,8.60
2023-04-23T02:40:36.880Z,6.43
2023-04-23T02:43:04.149Z,8.23
2023-04-23T02:45:31.335Z,7.47
2023-04-23T02:47:58.648Z,7.47
2023-04-23T02:50:26.119Z,6.47
2023-04-23T02:52:53.498Z,6.90
2023-04-23T02:55:21.135Z,6.60
2023-04-23T02:57:48.579Z,5.32
2023-04-23T03:00:17.161Z,6.28
2023-04-23T03:02:45.565Z,6.78
2023-04-23T03:05:13.894Z,7.55
2023-04-23T03:07:42.141Z,7.40
2023-04-23T03:10:10.026Z,6.35
2023-04-23T03:12:37.602Z,6.13
2023-04-23T03:15:05.918Z,5.93
2023-04-23T03:17:35.999Z,6.47
2023-04-23T03:20:04.296Z,6.15
2023-04-23T03:22:31.759Z,5.95
2023-04-23T03:24:59.230Z,6.97
2023-04-23T03:27:27.010Z,7.00
2023-04-23T03:29:55.471Z,4.97
2023-04-23T03:32:23.298Z,7.07
2023-04-23T03:34:51.014Z,5.75
2023-04-23T03:37:18.659Z,6.32
2023-04-23T03:39:46.217Z,6.38
2023-04-23T03:42:14.128Z,4.07
2023-04-23T03:44:41.738Z,6.45
2023-04-23T03:47:09.481Z,5.40
2023-04-23T03:49:38.458Z,6.30
2023-04-23T03:52:06.272Z,5.72
2023-04-23T03:54:37.357Z,6.25
2023-04-23T03:57:13.985Z,5.65
2023-04-23T03:59:55.919Z,6.78
2023-04-23T04:02:25.075Z,5.60
2023-04-23T04:04:55.231Z,3.88
2023-04-23T04:07:25.020Z,5.25
2023-04-23T04:09:55.322Z,5.00
2023-04-23T04:12:25.913Z,4.90
2023-04-23T04:14:53.246Z,4.90
2023-04-23T04:17:20.662Z,6.72
2023-04-23T04:19:48.684Z,5.65
2023-04-23T04:22:16.396Z,5.88
2023-04-23T04:24:44.098Z,6.88
2023-04-23T04:27:11.794Z,6.57
2023-04-23T04:29:41.845Z,6.05
2023-04-23T04:32:10.517Z,5.60
2023-04-23T04:34:39.429Z,5.68
2023-04-23T04:37:07.179Z,6.40
2023-04-23T04:39:34.599Z,4.85
2023-04-23T04:42:03.084Z,6.47
2023-04-23T04:44:31.006Z,4.82
2023-04-23T04:46:58.579Z,6.63
2023-04-23T04:49:26.062Z,8.35
2023-04-23T04:51:54.441Z,5.85
2023-04-23T04:54:22.103Z,7.88
2023-04-23T04:56:49.516Z,6.07
2023-04-23T04:59:16.911Z,7.63
2023-04-23T05:01:44.894Z,6.18
2023-04-23T05:04:12.450Z,8.40
2023-04-23T05:06:39.897Z,6.03
2023-04-23T05:09:08.529Z,7.63
2023-04-23T05:11:36.255Z,6.35
2023-04-23T05:14:04.781Z,5.60
2023-04-23T05:16:32.106Z,5.90
2023-04-23T05:18:59.710Z,7.85
2023-04-23T05:21:27.910Z,6.97
2023-04-23T05:23:55.871Z,7.07
2023-04-23T05:26:23.462Z,6.70
2023-04-23T05:28:51.077Z,7.70
2023-04-23T05:31:22.051Z,6.50
2023-04-23T05:33:50.762Z,7.50
2023-04-23T05:36:18.963Z,5.10
2023-04-23T05:38:46.935Z,6.05
2023-04-23T05:41:14.922Z,5.00
2023-04-23T05:43:42.456Z,5.20
2023-04-23T05:46:09.817Z,6.10
2023-04-23T05:48:37.280Z,6.63
2023-04-23T05:51:04.920Z,4.60
2023-04-23T05:53:32.422Z,4.90
2023-04-23T05:56:00.023Z,5.30
2023-04-23T05:58:27.875Z,5.90
2023-04-23T06:00:55.472Z,5.05
2023-04-23T06:03:22.921Z,4.47
2023-04-23T06:05:50.483Z,4.40
2023-04-23T06:08:18.705Z,4.63
2023-04-23T06:10:46.493Z,4.97
2023-04-23T06:13:13.807Z,4.63
2023-04-23T06:18:37.943Z,3.92
2023-04-23T06:21:06.272Z,4.18
2023-04-23T06:23:34.480Z,4.47
2023-04-23T06:26:02.224Z,5.45
2023-04-23T06:28:29.809Z,4.32
2023-04-23T06:31:19.893Z,4.25
2023-04-23T06:33:47.718Z,3.85
2023-04-23T06:36:14.911Z,4.57
2023-04-23T06:38:42.493Z,4.53
2023-04-23T06:41:09.966Z,5.80
2023-04-23T06:43:37.437Z,4.72
2023-04-23T06:46:25.100Z,5.68
2023-04-23T06:48:52.468Z,5.43
2023-04-23T06:51:19.880Z,3.78
2023-04-23T06:53:47.751Z,4.75
2023-04-23T06:56:15.142Z,5.95
2023-04-23T06:58:42.704Z,5.22
2023-04-23T07:01:19.422Z,6.75
2023-04-23T07:03:49.442Z,5.30
2023-04-23T07:06:19.577Z,5.22
2023-04-23T07:08:47.085Z,4.88
2023-04-23T07:11:14.329Z,7.18
2023-04-23T07:13:42.527Z,6.32
2023-04-23T07:16:09.881Z,8.80
2023-04-23T07:18:37.339Z,8.35
2023-04-23T07:21:04.806Z,8.23
2023-04-23T07:23:32.090Z,9.82
2023-04-23T07:25:59.564Z,8.98
2023-04-23T07:28:26.986Z,10.07
2023-04-23T07:30:54.494Z,9.00
2023-04-23T07:33:21.919Z,8.70
2023-04-23T07:35:49.536Z,10.07
2023-04-23T07:38:16.860Z,7.50
2023-04-23T07:40:44.337Z,8.75
2023-04-23T07:43:15.332Z,9.93
2023-04-23T07:45:43.189Z,9.23
2023-04-23T07:48:10.932Z,8.73
2023-04-23T07:50:54.910Z,10.25
2023-04-23T07:53:23.278Z,7.53
2023-04-23T07:55:50.857Z,7.88
2023-04-23T07:58:18.243Z,8.30
2023-04-23T08:00:46.546Z,10.57
2023-04-23T08:03:13.977Z,10.43
2023-04-23T08:05:41.996Z,10.80
2023-04-23T08:08:11.408Z,10.32
2023-04-23T08:10:38.786Z,10.63
2023-04-23T08:13:05.971Z,9.65
2023-04-23T08:15:33.293Z,10.45
2023-04-23T08:18:01.009Z,9.18
2023-04-23T08:20:28.430Z,7.85
2023-04-23T08:22:56.823Z,9.38
2023-04-23T08:25:24.322Z,11.73
2023-04-23T08:27:51.496Z,11.10
2023-04-23T08:30:18.774Z,9.52
2023-04-23T08:32:51.379Z,9.80
2023-04-23T08:35:18.726Z,9.57
2023-04-23T08:37:46.456Z,8.45
2023-04-23T08:40:13.814Z,9.75
2023-04-23T08:43:02.196Z,8.55
2023-04-23T08:45:30.851Z,9.18
2023-04-23T08:48:02.118Z,9.90
2023-04-23T08:50:31.300Z,8.73
2023-04-23T08:52:59.134Z,8.43
2023-04-23T08:55:26.729Z,8.57
2023-04-23T08:57:58.391Z,10.15
2023-04-23T09:00:26.338Z,8.43
2023-04-23T09:02:54.208Z,8.13
2023-04-23T09:05:21.999Z,7.70
2023-04-23T09:07:49.449Z,7.40
2023-04-23T09:10:18.673Z,7.07
2023-04-23T09:12:46.934Z,6.80
2023-04-23T09:15:14.570Z,6.35
2023-04-23T09:17:46.453Z,5.47
2023-04-23T09:20:15.332Z,4.88
2023-04-23T09:22:47.303Z,6.03
2023-04-23T09:25:24.720Z,3.90
2023-04-23T09:27:53.355Z,4.22
2023-04-23T09:30:21.153Z,4.30
2023-04-23T09:32:49.810Z,5.32
2023-04-23T09:35:20.295Z,4.75
2023-04-23T09:42:16.415Z,3.35
2023-04-23T09:44:43.671Z,4.55
2023-04-23T09:47:12.403Z,4.53
2023-04-23T09:49:50.211Z,4.43
2023-04-23T09:52:18.612Z,4.97
2023-04-23T09:54:46.980Z,4.57
2023-04-23T09:57:14.594Z,4.95
2023-04-23T09:59:48.753Z,5.25
2023-04-23T10:02:20.499Z,6.03
2023-04-23T10:04:54.569Z,4.88
2023-04-23T10:07:25.809Z,4.78
2023-04-23T10:09:52.961Z,5.25
2023-04-23T10:12:41.161Z,6.18
2023-04-23T10:15:10.855Z,5.70
2023-04-23T10:17:39.390Z,4.50
2023-04-23T10:20:08.543Z,5.90
2023-04-23T10:22:38.044Z,6.07
2023-04-23T10:25:09.409Z,5.70
2023-04-23T10:27:52.245Z,5.70
2023-04-23T10:30:22.387Z,5.20
2023-04-23T10:32:51.086Z,5.10
2023-04-23T10:35:18.791Z,5.40
2023-04-23T10:37:48.428Z,5.15
2023-04-23T10:40:22.171Z,4.30
2023-04-23T10:42:50.388Z,4.20
2023-04-23T10:47:49.579Z,4.32
2023-04-23T10:50:29.155Z,4.15
2023-04-23T10:52:58.337Z,3.80
2023-04-23T10:55:31.114Z,3.63
2023-04-23T10:58:03.302Z,4.15
2023-04-23T11:00:43.453Z,3.90
2023-04-23T11:03:33.190Z,3.65
2023-04-23T11:06:05.132Z,3.50
2023-04-23T11:08:32.877Z,4.00
2023-04-23T11:11:01.816Z,4.30
2023-04-23T11:13:30.610Z,4.45
2023-04-23T11:16:23.406Z,3.75
2023-04-23T11:19:00.133Z,3.05
2023-04-23T11:22:02.403Z,3.22
2023-04-23T11:24:42.768Z,3.85
2023-04-23T11:27:13.239Z,3.20
2023-04-23T11:29:43.281Z,3.92
2023-04-23T11:32:13.146Z,4.05
2023-04-23T11:34:43.423Z,4.63
2023-04-23T11:37:12.427Z,4.80
2023-04-23T11:39:41.579Z,4.32
2023-04-23T11:42:14.397Z,4.53
2023-04-23T11:44:42.770Z,4.75
2023-04-23T11:47:12.566Z,4.18
2023-04-23T11:49:41.219Z,4.53
2023-04-23T11:52:09.507Z,4.07
2023-04-23T11:54:37.131Z,4.00
2023-04-23T11:57:05.951Z,3.45
2023-04-23T11:59:33.112Z,4.75
2023-04-23T12:02:00.822Z,6.63
2023-04-23T12:04:32.058Z,5.20
2023-04-23T12:06:59.990Z,5.00
2023-04-23T12:09:29.460Z,4.78
2023-04-23T12:12:00.812Z,5.47
2023-04-23T12:14:30.098Z,5.00
2023-04-23T12:16:58.953Z,5.00
2023-04-23T12:19:28.670Z,4.97
2023-04-23T12:21:59.250Z,4.45
2023-04-23T12:24:28.764Z,4.25
2023-04-23T12:27:02.982Z,4.60
2023-04-23T12:29:31.903Z,4.70
2023-04-23T12:32:00.241Z,4.10
2023-04-23T12:34:27.691Z,4.70
2023-04-23T12:36:56.327Z,3.83
2023-04-23T12:39:26.654Z,3.72
2023-04-23T12:41:56.562Z,4.47
2023-04-23T12:44:23.939Z,4.07
2023-04-23T12:47:03.680Z,4.85
2023-04-23T12:49:32.439Z,4.60
2023-04-23T12:52:03.900Z,4.60
2023-04-23T12:54:37.615Z,4.53
2023-04-23T12:57:11.256Z,4.00
2023-04-23T12:59:39.109Z,4.00
2023-04-23T13:02:07.535Z,4.40
2023-04-23T13:04:36.404Z,4.47
2023-04-23T13:07:03.580Z,4.20
2023-04-23T13:09:31.130Z,4.15
2023-04-23T13:12:00.171Z,4.13
2023-04-23T13:14:28.435Z,3.85
2023-04-23T13:17:21.503Z,4.38
2023-04-23T13:19:48.982Z,4.03
2023-04-23T13:25:09.237Z,4.65
2023-04-23T13:27:40.067Z,5.32
2023-04-23T13:30:08.610Z,3.83
2023-04-23T13:32:36.123Z,4.40
2023-04-23T13:35:06.589Z,4.40
2023-04-23T13:37:34.016Z,5.72
2023-04-23T13:40:11.752Z,4.78
2023-04-23T13:42:39.810Z,3.95
2023-04-23T13:45:12.526Z,4.47
2023-04-23T13:47:49.086Z,4.15
2023-04-23T13:50:16.538Z,4.50
2023-04-23T13:52:43.888Z,3.45
2023-04-23T13:55:11.379Z,4.50
2023-04-23T13:57:38.639Z,4.75
2023-04-23T14:00:07.333Z,4.80
2023-04-23T14:02:35.619Z,4.95
2023-04-23T14:05:04.464Z,4.38
2023-04-23T14:07:31.880Z,3.30
2023-04-23T14:09:59.203Z,3.70
2023-04-23T14:12:31.344Z,3.50
2023-04-23T14:15:07.766Z,2.83
2023-04-23T14:17:39.563Z,3.15
2023-04-23T14:20:20.640Z,3.40
2023-04-23T14:22:55.711Z,2.88
2023-04-23T14:25:42.317Z,3.78
2023-04-23T14:28:52.020Z,2.63
2023-04-23T14:31:19.950Z,3.80
2023-04-23T14:34:01.232Z,3.45
2023-04-23T14:37:21.962Z,3.80
2023-04-23T14:39:49.843Z,2.78
2023-04-23T14:42:20.408Z,3.05
2023-04-23T14:44:47.892Z,2.78
2023-04-23T14:47:16.054Z,2.63
2023-04-23T15:01:47.979Z,2.70
2023-04-23T15:04:15.356Z,2.50
2023-04-23T15:06:42.552Z,2.65
2023-04-23T15:09:09.752Z,2.38
2023-04-23T15:11:38.911Z,2.90
2023-04-23T15:14:26.276Z,3.42
2023-04-23T15:17:39.198Z,2.67
2023-04-23T15:20:17.964Z,2.67
2023-04-23T15:22:48.039Z,3.35
2023-04-23T15:25:17.217Z,2.65
2023-04-23T15:27:46.243Z,2.67
2023-04-23T15:30:14.042Z,3.15
2023-04-23T15:32:41.437Z,3.28
2023-04-23T15:35:09.172Z,2.80
2023-04-23T15:37:36.381Z,3.60
2023-04-23T15:40:04.154Z,3.30
2023-04-23T15:42:32.516Z,2.80
2023-04-23T15:45:01.453Z,3.17
2023-04-23T15:47:30.222Z,3.35
2023-04-23T15:53:06.873Z,2.88
2023-04-23T15:55:34.314Z,3.65
2023-04-23T15:58:19.309Z,3.30
2023-04-23T16:00:52.596Z,3.53
2023-04-23T16:03:57.672Z,3.60
2023-04-23T16:07:07.651Z,4.22
2023-04-23T16:09:38.274Z,3.53
2023-04-23T16:12:06.072Z,3.85
2023-04-23T16:14:33.283Z,4.03
2023-04-23T16:17:00.658Z,2.88
2023-04-23T16:19:28.603Z,2.95
2023-04-23T16:21:55.937Z,3.00
2023-04-23T16:24:23.540Z,2.75
2023-04-23T16:26:50.906Z,3.08
2023-04-23T16:29:22.712Z,2.30
2023-04-23T16:31:50.660Z,3.33
2023-04-23T16:34:18.735Z,3.10
2023-04-23T16:39:44.414Z,2.70
2023-04-23T16:47:32.228Z,2.63
2023-04-23T16:59:06.230Z,2.10
2023-04-23T17:14:26.065Z,2.10
2023-04-23T17:16:53.331Z,2.28
2023-04-23T17:19:20.628Z,2.30
2023-04-23T17:21:47.919Z,3.00
2023-04-23T17:24:15.102Z,2.72
2023-04-23T17:26:55.163Z,2.50
2023-04-23T18:19:25.192Z,3.20
2023-04-23T18:21:57.870Z,2.93
2023-04-23T18:24:25.288Z,3.97
2023-04-23T18:26:54.791Z,3.30
2023-04-23T18:29:22.380Z,3.00
2023-04-23T18:36:08.482Z,3.30
2023-04-23T18:38:45.311Z,3.60
2023-04-23T18:44:59.589Z,2.53
2023-04-23T18:50:52.761Z,6.53
2023-04-23T18:56:29.755Z,3.60
2023-04-23T18:59:37.867Z,6.17
2023-04-23T19:02:34.343Z,4.80
2023-04-23T19:08:09.467Z,3.37
2023-04-23T19:10:39.628Z,3.37
2023-04-23T19:13:07.545Z,2.53
2023-04-23T19:19:35.518Z,3.07
2023-04-23T19:22:20.889Z,3.13
2023-04-23T19:32:35.710Z,3.53
2023-04-23T19:39:00.028Z,3.20
2023-04-23T19:41:30.350Z,3.57
2023-04-23T19:44:11.075Z,4.30
2023-04-23T19:49:41.410Z,3.00
2023-04-23T19:52:34.775Z,3.30
2023-04-23T19:55:02.720Z,2.63
2023-04-23T19:57:30.010Z,2.90
2023-04-23T19:59:57.524Z,3.83
2023-04-23T20:02:25.111Z,3.00
2023-04-23T20:04:52.531Z,3.40
2023-04-23T20:07:19.813Z,3.20
2023-04-23T20:09:47.098Z,3.23
2023-04-23T20:12:14.474Z,2.80
2023-04-23T20:14:42.760Z,3.60
2023-04-23T20:17:10.422Z,3.20
2023-04-23T20:19:38.590Z,3.50
2023-04-23T20:22:07.920Z,3.53
2023-04-23T20:29:25.964Z,3.83
2023-04-23T20:32:18.258Z,3.53
2023-04-23T20:35:15.727Z,5.77
2023-04-23T20:41:26.278Z,4.73
2023-04-23T20:43:55.483Z,3.40
2023-04-23T20:46:38.638Z,3.80
2023-04-23T20:49:35.166Z,3.40
2023-04-23T20:52:24.354Z,3.63
2023-04-23T20:58:42.861Z,3.07
2023-04-23T21:01:40.148Z,4.20
2023-04-23T21:18:37.083Z,3.97
2023-04-23T21:21:04.973Z,4.03
2023-04-23T21:23:32.320Z,4.37
2023-04-23T21:25:59.782Z,3.40
2023-04-23T21:28:27.326Z,4.40
2023-04-23T21:30:56.634Z,3.77
2023-04-23T21:33:25.908Z,3.57
2023-04-23T21:35:53.966Z,4.10
2023-04-23T21:38:21.662Z,4.70
2023-04-23T21:40:48.904Z,3.42
2023-04-23T21:43:16.982Z,3.37
2023-04-23T21:45:44.246Z,3.13
2023-04-23T21:48:11.669Z,3.33
2023-04-23T21:50:39.030Z,3.30
2023-04-23T21:53:07.017Z,3.80
2023-04-23T21:55:34.564Z,3.93
2023-04-23T22:00:32.979Z,3.03
2023-04-23T22:03:00.382Z,3.37
2023-04-23T22:05:28.657Z,3.83
2023-04-23T22:07:57.021Z,3.27
2023-04-23T22:10:24.410Z,3.40
2023-04-23T22:12:52.262Z,3.37
2023-04-23T22:15:20.064Z,3.10
2023-04-23T22:17:50.505Z,3.43
2023-04-23T22:20:19.331Z,3.30
2023-04-23T22:22:46.948Z,3.23
2023-04-23T22:25:16.332Z,2.63
2023-04-23T22:27:43.774Z,3.83
2023-04-23T22:30:11.962Z,2.87
2023-04-23T22:32:40.016Z,3.13
2023-04-23T22:35:08.444Z,2.30
2023-04-23T22:37:36.171Z,2.53
2023-04-23T22:40:05.461Z,2.70
2023-04-23T22:42:33.491Z,3.30
2023-04-23T22:45:00.931Z,2.97
2023-04-23T22:47:28.508Z,2.93
2023-04-23T22:49:55.877Z,2.67
2023-04-23T22:52:23.238Z,3.07
2023-04-23T22:54:51.769Z,3.03
2023-04-23T22:57:19.384Z,2.87
2023-04-23T22:59:46.984Z,2.40
2023-04-23T23:02:14.559Z,2.57
2023-04-23T23:04:42.547Z,2.43
2023-04-23T23:07:10.363Z,2.70
2023-04-23T23:09:38.104Z,2.60
2023-04-23T23:12:06.388Z,3.10
2023-04-23T23:14:34.357Z,3.07
2023-04-23T23:17:02.894Z,3.17
2023-04-23T23:19:33.574Z,3.03
2023-04-23T23:22:01.122Z,3.43
2023-04-23T23:24:28.736Z,2.80
2023-04-23T23:26:56.226Z,3.17
2023-04-23T23:29:23.619Z,3.37
2023-04-23T23:31:51.369Z,3.10
2023-04-23T23:34:18.973Z,3.53
2023-04-23T23:36:48.555Z,3.40
2023-04-23T23:39:19.340Z,3.30
2023-04-23T23:41:47.589Z,4.27
2023-04-23T23:44:16.168Z,3.27
2023-04-23T23:46:45.474Z,3.87
2023-04-23T23:49:12.856Z,3.90
2023-04-23T23:51:41.024Z,4.17
2023-04-23T23:54:08.792Z,4.27
2023-04-23T23:56:37.597Z,3.93
2023-04-23T23:59:05.180Z,4.47
